createdAt,value
2022-09-28T00:02:25.724Z,12.70
2022-09-28T00:04:52.571Z,12.70
2022-09-28T00:07:19.837Z,12.70
2022-09-28T00:09:46.705Z,12.70
2022-09-28T00:12:13.502Z,12.70
2022-09-28T00:14:40.763Z,12.60
2022-09-28T00:17:08.375Z,12.60
2022-09-28T00:19:35.238Z,12.50
2022-09-28T00:22:02.125Z,12.40
2022-09-28T00:24:29.729Z,12.50
2022-09-28T00:26:58.897Z,12.50
2022-09-28T00:29:31.586Z,12.70
2022-09-28T00:32:11.818Z,12.40
2022-09-28T00:34:42.425Z,12.50
2022-09-28T00:37:10.295Z,12.40
2022-09-28T00:39:38.521Z,12.50
2022-09-28T00:42:14.629Z,12.50
2022-09-28T00:44:49.085Z,12.30
2022-09-28T00:47:21.957Z,12.30
2022-09-28T00:49:54.928Z,12.40
2022-09-28T00:52:37.051Z,12.40
2022-09-28T00:55:08.466Z,12.50
2022-09-28T00:57:37.423Z,12.50
2022-09-28T01:00:06.173Z,12.50
2022-09-28T01:02:33.133Z,12.30
2022-09-28T01:05:01.585Z,12.10
2022-09-28T01:07:29.160Z,12.30
2022-09-28T01:09:56.433Z,12.30
2022-09-28T01:12:23.493Z,12.30
2022-09-28T01:14:51.862Z,12.40
2022-09-28T01:17:51.082Z,12.30
2022-09-28T01:20:47.363Z,12.30
2022-09-28T01:23:26.226Z,12.10
2022-09-28T01:26:16.349Z,11.90
2022-09-28T01:28:45.557Z,12.00
2022-09-28T01:31:17.995Z,12.00
2022-09-28T01:33:46.748Z,12.00
2022-09-28T01:36:28.191Z,12.10
2022-09-28T01:39:10.821Z,12.00
2022-09-28T01:41:41.389Z,11.90
2022-09-28T01:44:14.233Z,12.10
2022-09-28T01:46:45.510Z,12.10
2022-09-28T01:49:25.855Z,11.90
2022-09-28T01:51:57.302Z,11.80
2022-09-28T01:55:02.513Z,11.80
2022-09-28T01:57:48.072Z,12.00
2022-09-28T02:00:16.453Z,11.80
2022-09-28T02:03:16.940Z,11.90
2022-09-28T02:06:11.190Z,11.50
2022-09-28T02:08:48.272Z,11.70
2022-09-28T02:11:17.472Z,11.70
2022-09-28T02:14:06.921Z,11.90
2022-09-28T02:16:43.020Z,12.00
2022-09-28T02:19:26.016Z,12.10
2022-09-28T02:22:25.083Z,12.10
2022-09-28T02:25:03.512Z,12.00
2022-09-28T02:27:42.546Z,11.90
2022-09-28T02:30:10.585Z,12.00
2022-09-28T02:32:41.361Z,12.00
2022-09-28T02:35:12.214Z,12.00
2022-09-28T02:37:40.403Z,11.80
2022-09-28T02:40:31.990Z,11.80
2022-09-28T02:43:18.146Z,11.70
2022-09-28T02:46:02.304Z,11.70
2022-09-28T02:49:17.258Z,11.60
2022-09-28T02:52:28.040Z,11.70
2022-09-28T02:55:04.025Z,11.60
2022-09-28T02:58:17.323Z,11.70
2022-09-28T03:01:08.809Z,11.70
2022-09-28T03:03:53.408Z,11.60
2022-09-28T03:06:38.247Z,11.60
2022-09-28T03:09:28.767Z,11.60
2022-09-28T03:12:05.085Z,11.60
2022-09-28T03:14:32.253Z,11.90
2022-09-28T03:16:59.212Z,11.80
2022-09-28T03:19:31.500Z,11.90
2022-09-28T03:21:59.452Z,11.90
2022-09-28T03:24:27.226Z,11.70
2022-09-28T03:26:54.553Z,11.60
2022-09-28T03:29:21.476Z,11.60
2022-09-28T03:31:49.248Z,11.80
2022-09-28T03:34:16.433Z,11.90
2022-09-28T03:36:43.590Z,12.00
2022-09-28T03:39:10.554Z,11.80
2022-09-28T03:41:38.343Z,11.80
2022-09-28T03:44:05.444Z,11.60
2022-09-28T03:46:32.469Z,11.50
2022-09-28T03:48:59.460Z,11.50
2022-09-28T03:51:26.852Z,11.40
2022-09-28T03:53:53.832Z,11.30
2022-09-28T03:56:20.651Z,11.40
2022-09-28T03:58:47.539Z,11.30
2022-09-28T04:01:17.660Z,11.50
2022-09-28T04:03:45.680Z,11.70
2022-09-28T04:06:13.832Z,11.50
2022-09-28T04:08:40.850Z,11.30
2022-09-28T04:11:07.998Z,11.20
2022-09-28T04:13:35.123Z,11.00
2022-09-28T04:16:02.459Z,10.90
2022-09-28T04:18:29.856Z,10.90
2022-09-28T04:21:03.547Z,11.00
2022-09-28T04:23:30.725Z,11.20
2022-09-28T04:25:57.717Z,11.30
2022-09-28T04:28:43.979Z,11.20
2022-09-28T04:31:17.167Z,11.20
2022-09-28T04:33:44.268Z,11.20
2022-09-28T04:36:11.438Z,11.20
2022-09-28T04:38:52.401Z,11.20
2022-09-28T04:41:22.401Z,11.20
2022-09-28T04:43:50.337Z,11.10
2022-09-28T04:46:17.952Z,11.00
2022-09-28T04:48:45.388Z,10.90
2022-09-28T04:51:12.668Z,10.80
2022-09-28T04:53:39.549Z,10.70
2022-09-28T04:56:10.727Z,10.60
2022-09-28T04:58:38.275Z,10.70
2022-09-28T05:01:08.451Z,10.80
2022-09-28T05:03:36.263Z,10.90
2022-09-28T05:06:03.830Z,10.90
2022-09-28T05:08:31.050Z,10.90
2022-09-28T05:11:07.650Z,10.90
2022-09-28T05:13:42.165Z,10.70
2022-09-28T05:16:13.896Z,10.60
2022-09-28T05:18:40.835Z,10.50
2022-09-28T05:21:15.308Z,10.60
2022-09-28T05:23:47.524Z,10.50
2022-09-28T05:26:15.484Z,10.30
2022-09-28T05:28:46.484Z,10.10
2022-09-28T05:31:13.988Z,10.00
2022-09-28T05:33:41.004Z,10.00
2022-09-28T05:36:11.006Z,10.10
2022-09-28T05:38:38.652Z,10.10
2022-09-28T05:41:06.813Z,10.30
2022-09-28T05:43:34.551Z,10.30
2022-09-28T05:46:01.532Z,10.30
2022-09-28T05:48:28.509Z,10.20
2022-09-28T05:50:56.143Z,10.30
2022-09-28T05:53:23.093Z,10.20
2022-09-28T05:55:49.855Z,10.20
2022-09-28T05:58:17.045Z,10.20
2022-09-28T06:00:44.054Z,10.40
2022-09-28T06:03:13.427Z,10.60
2022-09-28T06:05:40.793Z,10.70
2022-09-28T06:08:10.756Z,10.80
2022-09-28T06:10:38.271Z,10.90
2022-09-28T06:13:06.526Z,10.80
2022-09-28T06:15:34.954Z,10.70
2022-09-28T06:18:05.055Z,10.90
2022-09-28T06:20:35.676Z,11.00
2022-09-28T06:23:02.910Z,11.00
2022-09-28T06:25:29.852Z,11.20
2022-09-28T06:28:07.311Z,11.40
2022-09-28T06:30:38.152Z,11.20
2022-09-28T06:33:07.179Z,11.10
2022-09-28T06:35:34.947Z,11.20
2022-09-28T06:38:02.208Z,11.10
2022-09-28T06:40:29.768Z,10.90
2022-09-28T06:42:57.842Z,11.00
2022-09-28T06:45:25.602Z,11.20
2022-09-28T06:48:11.495Z,11.20
2022-09-28T06:50:41.028Z,11.10
2022-09-28T06:53:10.890Z,11.20
2022-09-28T06:55:42.875Z,11.30
2022-09-28T06:58:16.100Z,11.60
2022-09-28T07:00:44.123Z,11.70
2022-09-28T07:03:16.823Z,11.90
2022-09-28T07:05:46.747Z,11.70
2022-09-28T07:08:15.088Z,11.80
2022-09-28T07:10:47.801Z,11.80
2022-09-28T07:13:39.443Z,12.00
2022-09-28T07:16:03.577Z,12.00
2022-09-28T07:18:30.425Z,12.00
2022-09-28T07:20:57.679Z,12.20
2022-09-28T07:23:27.556Z,12.20
2022-09-28T07:25:54.760Z,12.30
2022-09-28T07:28:22.377Z,12.40
2022-09-28T07:30:49.436Z,12.30
2022-09-28T07:33:17.727Z,12.40
2022-09-28T07:35:55.723Z,12.40
2022-09-28T07:38:22.925Z,12.30
2022-09-28T07:41:08.545Z,12.40
2022-09-28T07:43:35.464Z,12.40
2022-09-28T07:46:02.339Z,12.60
2022-09-28T07:48:38.014Z,12.70
2022-09-28T07:51:05.312Z,12.80
2022-09-28T07:53:32.312Z,12.90
2022-09-28T07:56:02.243Z,12.80
2022-09-28T07:58:29.556Z,12.60
2022-09-28T08:00:56.630Z,12.70
2022-09-28T08:03:23.528Z,12.70
2022-09-28T08:05:50.543Z,13.00
2022-09-28T08:08:18.538Z,13.30
2022-09-28T08:10:47.311Z,13.30
2022-09-28T08:13:16.391Z,13.50
2022-09-28T08:15:43.240Z,13.40
2022-09-28T08:18:10.655Z,13.60
2022-09-28T08:20:56.091Z,13.70
2022-09-28T08:23:23.683Z,13.70
2022-09-28T08:25:54.195Z,14.00
2022-09-28T08:28:23.847Z,14.00
2022-09-28T08:30:51.037Z,14.40
2022-09-28T08:33:21.535Z,14.40
2022-09-28T08:35:55.796Z,14.60
2022-09-28T08:38:22.848Z,14.80
2022-09-28T08:40:49.836Z,15.10
2022-09-28T08:43:46.913Z,15.00
2022-09-28T08:46:22.680Z,15.00
2022-09-28T08:49:13.325Z,15.10
2022-09-28T08:52:06.928Z,15.10
2022-09-28T08:54:49.156Z,15.00
2022-09-28T08:57:20.822Z,15.20
2022-09-28T08:59:51.338Z,15.10
2022-09-28T09:02:33.570Z,15.10
2022-09-28T09:05:03.945Z,15.10
2022-09-28T09:07:31.036Z,15.30
2022-09-28T09:10:13.606Z,14.80
2022-09-28T09:12:49.570Z,14.80
2022-09-28T09:15:47.778Z,15.20
2022-09-28T09:18:22.430Z,15.70
2022-09-28T09:21:06.334Z,15.80
2022-09-28T09:23:37.423Z,16.20
2022-09-28T09:26:10.629Z,15.90
2022-09-28T09:29:03.429Z,16.30
2022-09-28T09:31:33.082Z,16.90
2022-09-28T09:34:18.791Z,17.50
2022-09-28T09:36:54.005Z,17.50
2022-09-28T09:39:44.160Z,17.70
2022-09-28T09:42:11.397Z,17.50
2022-09-28T09:44:59.068Z,17.50
2022-09-28T09:47:43.370Z,17.10
2022-09-28T09:50:29.869Z,16.80
2022-09-28T09:53:24.162Z,17.10
2022-09-28T09:55:59.837Z,17.50
2022-09-28T09:58:34.030Z,17.00
2022-09-28T10:01:10.912Z,17.20
2022-09-28T10:03:42.562Z,17.70
2022-09-28T10:06:13.955Z,17.70
2022-09-28T10:08:58.902Z,17.90
2022-09-28T10:11:36.789Z,18.10
2022-09-28T10:14:06.236Z,18.20
2022-09-28T10:16:33.405Z,18.60
2022-09-28T10:19:01.181Z,18.70
2022-09-28T10:21:28.957Z,19.20
2022-09-28T10:23:58.754Z,19.80
2022-09-28T10:26:37.654Z,20.10
2022-09-28T10:29:15.805Z,19.00
2022-09-28T10:31:46.443Z,18.40
2022-09-28T10:34:15.711Z,18.50
2022-09-28T10:37:09.974Z,17.70
2022-09-28T10:39:37.924Z,18.00
2022-09-28T10:42:17.952Z,17.70
2022-09-28T10:45:00.382Z,17.60
2022-09-28T10:47:32.893Z,17.70
2022-09-28T10:50:01.010Z,17.60
2022-09-28T10:52:40.882Z,17.10
2022-09-28T10:55:32.195Z,16.80
2022-09-28T10:58:24.666Z,16.60
2022-09-28T11:00:52.825Z,16.30
2022-09-28T11:03:22.758Z,16.00
2022-09-28T11:06:02.858Z,15.90
2022-09-28T11:08:38.647Z,16.00
2022-09-28T11:11:11.688Z,16.30
2022-09-28T11:13:42.973Z,17.10
2022-09-28T11:16:32.703Z,17.90
2022-09-28T11:19:05.999Z,17.40
2022-09-28T11:21:42.998Z,17.60
2022-09-28T11:24:19.053Z,18.20
2022-09-28T11:26:49.902Z,18.00
2022-09-28T11:29:54.818Z,18.60
2022-09-28T11:32:24.047Z,19.60
2022-09-28T11:34:59.556Z,20.20
2022-09-28T11:38:05.223Z,20.80
2022-09-28T11:41:03.994Z,20.60
2022-09-28T11:44:08.112Z,21.30
2022-09-28T11:47:02.818Z,21.40
2022-09-28T11:49:40.053Z,21.40
2022-09-28T11:52:29.334Z,21.90
2022-09-28T11:55:17.217Z,22.10
2022-09-28T11:57:50.698Z,22.30
2022-09-28T12:00:22.444Z,21.80
2022-09-28T12:03:13.731Z,21.00
2022-09-28T12:05:55.892Z,20.20
2022-09-28T12:08:34.856Z,19.80
2022-09-28T12:11:24.119Z,20.10
2022-09-28T12:13:54.178Z,20.00
2022-09-28T12:17:00.922Z,20.40
2022-09-28T12:19:32.384Z,20.70
2022-09-28T12:22:05.467Z,21.10
2022-09-28T12:24:42.437Z,21.60
2022-09-28T12:27:10.462Z,22.10
2022-09-28T12:29:57.959Z,22.10
2022-09-28T12:32:39.470Z,21.50
2022-09-28T12:35:24.446Z,20.80
2022-09-28T12:38:08.920Z,20.20
2022-09-28T12:40:59.096Z,19.40
2022-09-28T12:43:54.680Z,19.20
2022-09-28T12:46:49.097Z,18.70
2022-09-28T12:52:58.089Z,18.50
2022-09-28T12:55:40.162Z,18.70
2022-09-28T12:58:19.077Z,18.70
2022-09-28T13:01:05.573Z,18.90
2022-09-28T13:03:41.294Z,19.50
2022-09-28T13:06:20.145Z,19.90
2022-09-28T13:09:14.349Z,20.50
2022-09-28T13:11:41.727Z,20.80
2022-09-28T13:14:36.277Z,19.90
2022-09-28T13:17:28.886Z,19.80
2022-09-28T13:20:13.148Z,20.20
2022-09-28T13:23:00.445Z,20.50
2022-09-28T13:25:31.235Z,21.10
2022-09-28T13:28:03.395Z,20.70
2022-09-28T13:30:32.714Z,20.20
2022-09-28T13:33:03.377Z,20.60
2022-09-28T13:35:31.355Z,21.00
2022-09-28T13:38:31.567Z,20.50
2022-09-28T13:41:04.755Z,20.90
2022-09-28T13:43:57.863Z,20.30
2022-09-28T13:46:45.392Z,19.80
2022-09-28T13:49:22.639Z,19.70
2022-09-28T13:51:56.813Z,20.30
2022-09-28T13:54:45.049Z,20.90
2022-09-28T13:57:46.442Z,21.60
2022-09-28T14:00:18.772Z,21.50
2022-09-28T14:03:13.334Z,22.30
2022-09-28T14:06:07.548Z,23.00
2022-09-28T14:08:38.534Z,23.00
2022-09-28T14:11:36.030Z,23.30
2022-09-28T14:14:05.939Z,23.60
2022-09-28T14:16:38.390Z,23.30
2022-09-28T14:19:24.639Z,23.00
2022-09-28T14:21:54.422Z,23.00
2022-09-28T14:25:12.342Z,23.00
2022-09-28T14:28:02.563Z,23.10
2022-09-28T14:30:42.099Z,22.20
2022-09-28T14:33:21.498Z,22.60
2022-09-28T14:35:48.548Z,22.10
2022-09-28T14:38:38.255Z,21.70
2022-09-28T14:41:09.909Z,21.00
2022-09-28T14:43:45.887Z,20.40
2022-09-28T14:46:17.078Z,20.00
2022-09-28T14:48:51.175Z,20.10
2022-09-28T14:51:27.601Z,20.10
2022-09-28T14:54:01.260Z,20.50
2022-09-28T14:56:32.994Z,20.90
2022-09-28T14:59:00.919Z,21.70
2022-09-28T15:01:28.444Z,22.10
2022-09-28T15:03:57.201Z,21.60
2022-09-28T15:06:25.236Z,21.20
2022-09-28T15:08:52.333Z,21.60
2022-09-28T15:11:25.088Z,21.50
2022-09-28T15:14:06.408Z,20.80
2022-09-28T15:16:33.521Z,20.70
2022-09-28T15:19:06.220Z,20.20
2022-09-28T15:21:36.750Z,20.40
2022-09-28T15:24:23.752Z,20.30
2022-09-28T15:26:50.760Z,20.80
2022-09-28T15:29:23.105Z,21.20
2022-09-28T15:31:54.128Z,21.30
2022-09-28T15:34:52.801Z,21.30
2022-09-28T15:37:24.218Z,21.10
2022-09-28T15:39:52.694Z,20.70
2022-09-28T15:42:20.480Z,20.50
2022-09-28T15:45:26.728Z,20.30
2022-09-28T15:48:33.619Z,19.80
2022-09-28T15:51:10.847Z,18.80
2022-09-28T15:53:48.027Z,18.70
2022-09-28T15:56:15.095Z,18.60
2022-09-28T15:58:42.759Z,18.10
2022-09-28T16:01:47.976Z,18.00
2022-09-28T16:04:37.380Z,18.00
2022-09-28T16:07:13.160Z,17.90
2022-09-28T16:10:04.888Z,17.70
2022-09-28T16:12:42.601Z,17.40
2022-09-28T16:15:34.329Z,17.30
2022-09-28T16:18:20.793Z,17.20
2022-09-28T16:20:51.177Z,17.20
2022-09-28T16:23:25.906Z,17.30
2022-09-28T16:26:02.877Z,17.10
2022-09-28T16:28:34.515Z,17.00
2022-09-28T16:31:07.623Z,16.70
2022-09-28T16:33:43.855Z,16.60
2022-09-28T16:36:17.157Z,16.60
2022-09-28T16:38:47.682Z,16.40
2022-09-28T16:41:19.038Z,16.10
2022-09-28T16:43:47.012Z,16.00
2022-09-28T16:46:18.235Z,16.10
2022-09-28T16:48:50.365Z,16.20
2022-09-28T16:51:17.717Z,16.30
2022-09-28T16:54:14.768Z,16.20
2022-09-28T16:56:41.561Z,16.40
2022-09-28T16:59:13.619Z,16.40
2022-09-28T17:01:44.160Z,16.40
2022-09-28T17:04:12.142Z,16.50
2022-09-28T17:06:39.050Z,16.50
2022-09-28T17:09:07.198Z,16.50
2022-09-28T17:11:34.305Z,16.40
2022-09-28T17:14:03.457Z,16.50
2022-09-28T17:16:59.940Z,16.40
2022-09-28T17:19:28.610Z,16.40
2022-09-28T17:21:55.614Z,16.30
2022-09-28T17:24:22.399Z,16.20
2022-09-28T17:26:51.794Z,16.00
2022-09-28T17:29:18.982Z,15.80
2022-09-28T17:31:47.570Z,15.90
2022-09-28T17:34:16.399Z,16.00
2022-09-28T17:36:44.717Z,15.70
2022-09-28T17:39:17.471Z,15.40
2022-09-28T17:41:44.956Z,15.30
2022-09-28T17:44:16.376Z,15.40
2022-09-28T17:46:49.723Z,15.50
2022-09-28T17:49:17.599Z,15.30
2022-09-28T17:51:44.527Z,15.30
2022-09-28T17:54:13.071Z,15.20
2022-09-28T17:56:40.072Z,15.30
2022-09-28T17:59:10.975Z,15.20
2022-09-28T18:01:40.175Z,15.10
2022-09-28T18:04:08.904Z,15.00
2022-09-28T18:06:37.267Z,14.90
2022-09-28T18:09:05.167Z,15.10
2022-09-28T18:11:33.398Z,15.10
2022-09-28T18:14:00.836Z,15.10
2022-09-28T18:16:29.003Z,15.10
2022-09-28T18:18:56.313Z,15.00
2022-09-28T18:21:23.199Z,14.90
2022-09-28T18:23:50.166Z,14.90
2022-09-28T18:26:19.689Z,15.10
2022-09-28T18:28:47.284Z,14.90
2022-09-28T18:31:15.979Z,14.70
2022-09-28T18:33:43.411Z,14.30
2022-09-28T18:36:12.787Z,14.30
2022-09-28T18:38:40.092Z,14.20
2022-09-28T18:41:16.034Z,14.20
2022-09-28T18:43:53.168Z,14.20
2022-09-28T18:46:20.012Z,14.20
2022-09-28T18:48:49.686Z,14.30
2022-09-28T18:51:16.663Z,14.50
2022-09-28T18:53:43.914Z,14.50
2022-09-28T18:56:14.709Z,14.50
2022-09-28T18:58:43.041Z,14.20
2022-09-28T19:01:32.267Z,14.10
2022-09-28T19:04:01.186Z,14.10
2022-09-28T19:06:29.886Z,14.10
2022-09-28T19:08:57.385Z,14.20
2022-09-28T19:11:25.618Z,14.20
2022-09-28T19:13:54.440Z,14.50
2022-09-28T19:16:28.127Z,14.50
2022-09-28T19:18:59.133Z,14.50
2022-09-28T19:21:27.105Z,14.40
2022-09-28T19:23:55.551Z,14.40
2022-09-28T19:26:25.508Z,14.40
2022-09-28T19:28:53.119Z,14.30
2022-09-28T19:31:20.740Z,14.00
2022-09-28T19:33:48.879Z,13.70
2022-09-28T19:36:24.064Z,13.50
2022-09-28T19:38:52.546Z,13.30
2022-09-28T19:41:43.403Z,13.00
2022-09-28T19:44:30.087Z,13.00
2022-09-28T19:46:58.281Z,13.00
2022-09-28T19:49:27.495Z,12.90
2022-09-28T19:52:11.945Z,12.80
2022-09-28T19:54:39.993Z,12.70
2022-09-28T19:57:08.624Z,12.70
2022-09-28T19:59:37.244Z,12.70
2022-09-28T20:02:06.399Z,12.70
2022-09-28T20:04:33.773Z,12.60
2022-09-28T20:07:01.065Z,12.70
2022-09-28T20:09:28.204Z,12.60
2022-09-28T20:11:55.350Z,13.00
2022-09-28T20:14:24.533Z,13.10
2022-09-28T20:16:53.317Z,12.90
2022-09-28T20:19:21.833Z,12.50
2022-09-28T20:21:49.302Z,12.40
2022-09-28T20:24:17.283Z,12.40
2022-09-28T20:26:46.142Z,12.40
2022-09-28T20:29:13.950Z,12.30
2022-09-28T20:31:41.164Z,12.20
2022-09-28T20:34:09.171Z,12.10
2022-09-28T20:36:36.565Z,12.40
2022-09-28T20:39:04.074Z,12.60
2022-09-28T20:41:35.671Z,12.80
2022-09-28T20:44:05.953Z,12.70
2022-09-28T20:46:34.910Z,12.50
2022-09-28T20:49:02.035Z,12.30
2022-09-28T20:51:29.000Z,12.20
2022-09-28T20:53:57.647Z,12.00
2022-09-28T20:56:27.179Z,12.00
2022-09-28T20:58:54.899Z,12.00
2022-09-28T21:01:27.559Z,12.20
2022-09-28T21:04:02.776Z,12.00
2022-09-28T21:06:35.497Z,12.20
2022-09-28T21:09:03.181Z,12.30
2022-09-28T21:11:30.279Z,12.10
2022-09-28T21:13:59.822Z,11.80
2022-09-28T21:16:31.458Z,11.80
2022-09-28T21:18:58.609Z,12.00
2022-09-28T21:21:26.277Z,12.00
2022-09-28T21:23:54.571Z,12.30
2022-09-28T21:26:27.006Z,11.90
2022-09-28T21:28:55.835Z,11.70
2022-09-28T21:31:28.867Z,11.50
2022-09-28T21:33:57.152Z,11.50
2022-09-28T21:36:25.040Z,11.50
2022-09-28T21:38:53.491Z,11.50
2022-09-28T21:41:20.320Z,11.50
2022-09-28T21:43:47.103Z,11.60
2022-09-28T21:46:14.108Z,11.50
2022-09-28T21:48:41.135Z,11.50
2022-09-28T21:51:12.610Z,11.50
2022-09-28T21:53:39.671Z,11.40
2022-09-28T21:56:09.485Z,11.40
2022-09-28T21:58:36.463Z,11.30
2022-09-28T22:01:16.866Z,11.50
2022-09-28T22:03:47.880Z,11.60
2022-09-28T22:06:16.264Z,11.70
2022-09-28T22:08:43.598Z,11.40
2022-09-28T22:11:19.266Z,11.30
2022-09-28T22:13:51.554Z,11.30
2022-09-28T22:16:22.574Z,11.40
2022-09-28T22:18:50.444Z,11.30
2022-09-28T22:21:21.480Z,11.20
2022-09-28T22:23:48.691Z,11.10
2022-09-28T22:26:25.774Z,11.50
2022-09-28T22:28:55.690Z,11.60
2022-09-28T22:31:31.788Z,11.50
2022-09-28T22:33:59.264Z,11.30
2022-09-28T22:36:26.403Z,11.30
2022-09-28T22:38:55.375Z,11.50
2022-09-28T22:41:22.700Z,11.90
2022-09-28T22:43:52.432Z,12.00
2022-09-28T22:46:22.327Z,12.10
2022-09-28T22:48:51.208Z,12.00
2022-09-28T22:51:18.374Z,11.70
2022-09-28T22:53:45.423Z,11.80
2022-09-28T22:56:18.153Z,12.00
2022-09-28T22:58:45.697Z,11.90
2022-09-28T23:01:15.567Z,11.70
2022-09-28T23:03:42.834Z,11.80
2022-09-28T23:06:11.438Z,12.00
2022-09-28T23:08:38.643Z,12.00
2022-09-28T23:11:06.280Z,11.90
2022-09-28T23:13:33.803Z,12.10
2022-09-28T23:16:06.207Z,11.90
2022-09-28T23:18:35.413Z,12.00
2022-09-28T23:21:05.778Z,11.90
2022-09-28T23:23:33.522Z,11.80
2022-09-28T23:26:00.500Z,12.00
2022-09-28T23:28:28.211Z,12.00
2022-09-28T23:30:55.411Z,12.00
2022-09-28T23:33:22.707Z,12.10
2022-09-28T23:35:49.824Z,12.20
2022-09-28T23:38:18.425Z,12.20
2022-09-28T23:40:46.553Z,12.30
2022-09-28T23:43:14.445Z,12.30
2022-09-28T23:45:44.055Z,12.00
2022-09-28T23:48:11.079Z,12.20
2022-09-28T23:50:37.852Z,12.00
2022-09-28T23:53:05.652Z,11.90
2022-09-28T23:55:32.934Z,11.80
2022-09-28T23:57:59.972Z,11.60
